Change Date:Time:

Metar of : 8/17/2018 1800UTC
Metar
OPMA 13004KT 4000 VCTS FEW030CB FEW040 SCT100 30/26 Q1001 78%
RN1.TAF OPRN 171800Z 1721/1806 15010KT 5000 VCTS FEW030TCU SCT040 BKN100 TEMPO 1722/1804 3000 TSRA FEW030TCU/CB
RN2.WXR WNG FOR TSRA OVER OPRN AND 50 KM AROUND PERIOD OF 17/1930Z TO 17/2230Z.
`TAF OPLA 1721/1806 13006KT 4000 FU SCT040 SCT100 TN26/1800Z TEMPO 1800/1804 18015G30KT 2000 TSRA FEW030CB SCT040 BKN100
IS1: TAF OPIS 1721/1806 13010KT 4000 HZ FEW040 SCT100 PROB30 TEMPO 1722/1803 03015G30KT 2000 TSRA FEW030CB SCT040 BKN080
OPAS 36002KT 3000 SCT040 BKN120 22/10 48%
OPBDN 171800Z 62304KT 500 BKN 040/100 28/24 Q 9995 RH 72%
OPBJ 18002KT 6000 RA SCT040 OVC110 27/16 51%
OPBK 1800UTC 00000KT 8000 SCT030 25/22 RH 80%
OPBKN 171800Z 23002KT 0500 SCT035 28/21 RH65%
OPBKR 00000KT 5000 FU NSC 36/27 60%
OPBL 171800Z 13002KT 6000 BKN100 30/25 RH 75%
OPBR 00000KT 6000 NSC 32/25 RH67%
OPBW 00000KT 4000 FU SCT040 33/27 Q0999 70%
OPBW( CITY) 00000KT 3000 FU SCT040 33/26 67%
OPCK 00000KT 9999 NSC 29/26 82%
OPCL 27002KT 6000 SCT040 BKN120 34/11 RH25%
OPDBN 171800Z 23004KT 6000 NSC 35/09 QNH.1001 RH20%
OPDG 18004KT 6000 SCT100 34/27 Q0997 65%
OPDIK 171800Z 23002KT 6000 NSC 34/28 Q0998 71%
OPDIR 00000KT 6000 Sct 035 24/20 RH76%
OPDU 171800Z 18006KT 5000 HZ BKN035 SCT100 31/22 RH 60%
OPFA 13004KT 2000 BR FEW100 31/28 Q0999 NOSIG RH86%
OPGD 171800Z 18004KT 3000 BR NSC 28/25 Q1001 RH85%
OPGP 00000KT 6000 SCT040 SCT100 27/24 85%
OPGPS 23004KT 4000 SCT040 BKN100 25/09 RH36%
OPGT 18008KT 3000 SCT040 BKN100 29/13 Q1005 37%
OPGW 13006KT 9999 SCT040 SCT110 30/27 85%
OPHQ 00000KT 6000 SCT030 SCT100 30/25 Q0998 RH 79%
OPIS 10004KT 4000 HZ FEW030 28/26 Q1002 RH87%
OPJBD 00000kt 4000 FU SCT040 33/29 79%
OPJD 171800Z 00000KT 4000 HZ SCT100 33/28 Q997 RH 73%
OPJG 13002KT 6000 NSC 32/26 Q0998 72%
OPJI 171800Z 18006KT 2000 FU BKN015 28/25 Q1000 RH85%
OPJM 00000KT 4000 FU NSC 30/26 78% HOURLY RAIN NIL
OPKAD 00000KT 6000 NSC 34/27 68℅
OPKC 171800Z 23004KT 7000 SCT020 BKN100 29/25 Q1000 RH78%
OPKD 171800Z 18002KT 2000 VCTS RA (2) FEW CB 025 BKN035 28/26 Q1000 RH88% TEMPO RA 3000 TO 2000 RA 02.4 mm
OPKL 00000KT 6000 SCT040 BKN100 29/25 79%
OPKLT 171800z 00000kt 5000 NSC 7961 22/06 Rh35%
OPKP 00000KT 4000 FU BKN120 32/27 73%
OPKRL 00000KT 5000 FU NSC 32/25 67%
OPKS 13004KT 4000 FU SCT100 30/27 82%
OPLA( CITY) 13006KT 4000 FU SCT120 31/26 Q0999 75%
OPLRK 171800Z 18008KT 6000 SCT100 33/24 Q999 RH58%
OPMB 09002KT 6000 NSC 31/28 Q0999 86%
OPME 00000KT 0050 OVC000 ST 19/18 91%
OPMF 00000KT 7000 SCT033 SCT100 25/20 76%
OPMIT 171800z 27502KT 6000 FEW025 FEW035 FEW042 SCT100 (CB1) LT RAIN 3.0 MM 28/27 Q0998 RH92%
OPMJ 171800Z 13006KT 6000 NSC 31/25 Q 998 RH72% NOSIg
OPMPK 171800Z 00000KT V6000 Thunderstorm SCT 030 FEW 100 26/25 Q9999 RH 96%
OPMT 18004KT 4000 FU FEW040 SCT100 34/27 Q0998 NOSIG RH 65%
OPNH 171800Z 13506KT 3000 DZ FEW020 SCT035 BKN110 28/26 Q0999 RH88% 2.0MM TEMPO DZ
OPNK 171800Z 31506KT 2000 DU 35/01 Q0993 RH 11%
OPOK 13002KT 6000 NSC 32/27 Q0998 73%
OPPDN 171800Z 02302KT 5000 few40 sct100 27/24 Q999 RH 84%
OPPG 171800Z 23012KT 5000 HZ SKC 32/17 Q1009 Rh40%
OPPS 05008KT 5000 HZ SCT040 SCT100 30/24 Q999 RH 72%
OPQT 13014KT 5000 HZ FEW200 27/10 Q1011 RH 35%
OPRK 00000KT 3000 FU FFW100 34/27 Q0998 67%
OPRN 13006KT 7000 FEW045 29/24 Q1002 NOSIG RMK A2961 RH75%
OPRQ 09006KT 4000 HZ FEW040 SCT100 33/26 Q0998 RH.64%
OPRRI 171800Z 13504KT 6000 SCT100 DH 34/24 P1P1 9895/
OPRT 00000KT 6000 SCT040 OVC100 21/20 Q1015 91%
OPSD 31008KT 6000 FEW025ST SCT035 BKN100 25/10 Q1013 39%
OPSG 00000KT 6000 NSC 33/28 76%
OPSK 171800Z 13008KT 4000 HZ SCT040 SCT100 34/27 Q.0997 RH 65% NOSIG
OPSKT 13004KT 6000 TS FEW035CB SCT035 SCT100 29/26 89%
OPSM 171800Z 13002KT 1000HZ NSC 27/15 RH 47%
OPSS 1800Z 00000KT 4000 SCT040 FEW100 29/24 75%
OPST 13010KT 4000 FU SCT040 SCT100 29/25 Q1001 TEMPO 05015G30KT 2000 -TSRA FEW030CB RH78%
OPSW 13002KT 6000 NSC 33/27 Q0997 70%
OPTJM 171800Z 00000Kt 6000 DZ SCT035 BKN100 28/25 Q1002 RH 85%
OPTS 00000KT 4000 FU NSC 32/29 82%
OPTU 171800Z 27010KT 5000 SKC 34/23 Q1000 RH54%
OPUG 00000KT 4000 FU NSC 29/25 81%
OPZB 171800Z 00000KT 6000 SKC 27/21 Q1008 RH 71%
PS1.TAF OPPS 171800Z 1721/1806 05010KT 4000 HZ FEW030TCU SCT040 BKN080
QT1.TAF OPQT 171800Z 1721/1806 23015G25KT 4000 HZ FEW050 FEW100
WX WARNING FOR GUSTY WIND/DRW OVER OPQT IS FROM 1815Z-2115Z.
CodeW.DirSpeedVisibilityCloud ConditionTempPressureHumidityStation
OPAS36002KT3000mPartly Cloudy22oC48%ASTORE
OPBR00000KT6000mClear32oC67%Bahawalnagar
OPBW00000KT4000mPartly Cloudy33oC999hp70%Bahawalpur City
OPBK00000KT8000mPartly Cloudy25oC80%Balakot
OPBKR00000KT5000mHaze36oC60%Bhakkar
OPBJ18002KT6000mThunder Rain27oC51%BUNJI
OPRN13006KT7000mPartly Cloudy29oC1002hp75%CHAKLALA- RAWALPINDI
OPCK00000KT9999mClear29oC82%Chakwal
OPCL27002KT6000mPartly Cloudy34oC25%Chilas
OPDG18004KT6000mPartly Cloudy34oC997hp65%D-G-KHAN
OPFA13004KT2000mMist31oC999hp86%Faisalabad Airport
OPGP00000KT6000mPartly Cloudy27oC85%GARHI DOPATTA
OPGD18004KT3000mMist28oC1001hp85%Gawadar
OPGT18008KT3000mPartly Cloudy29oC1005hp37%Gilgit Airport
OPGW13006KT9999mPartly Cloudy30oC85%Gujranwala
OPUG00000KT4000mHaze29oC81%Gujrat
OPKD18002KT2000mThunder Rain28oC1000hp88%Hyderabad
OPIS10004KT4000mPartly Cloudy28oC1002hp87%Islamabad Airport
OPHQ00000KT6000mPartly Cloudy30oC998hp79%Islamabad City
OPJG13002KT6000mClear32oC998hp72%Jhang
OPJM00000KT4000mHaze30oC78%Jhelum
OPJI18006KT2000mCloudy28oC1000hp85%Jiwani
OPJBD00000KT4000mPartly Cloudy33oC79%Joharabad
OPKC23004KT7000mPartly Cloudy29oC1000hp78%Karachi Airport
OPKRL00000KT5000mHaze32oC67%KAROR (LAYYAH)
OPKS13004KT4000mPartly Cloudy30oC82%Kasur
OPKP00000KT4000mCloudy32oC73%Khanpur
OPKAD00000KT6000mClear34oCKOT ADDU
OPKL00000KT6000mPartly Cloudy29oC79%Kotli
OPMB09002KT6000mClear31oC999hp86%MANDI BAHUDDIN
OPMA13004KT4000mPartly Cloudy30oC1001hp78%Mangla
OPMJ13006KT6000mClear31oC72%MOHENJO DARO
OPMT18004KT4000mPartly Cloudy34oC998hp65%Multan
OPME00000KT0050mCloudy19oC91%Murree
OPMF00000KT7000mPartly Cloudy25oC76%MUZAFFARABAD
OPOK13002KT6000mClear32oC998hp73%Okara
OPPG23012KT5000mHaze32oC1009hp40%Panjgur
OPPS05008KT5000mPartly Cloudy30oC999hp72%Peshawar Airport
OPQT13014KT5000mPartly Cloudy27oC1011hp35%Quetta
OPRT00000KT6000mPartly Cloudy21oC1015hp91%Rawalakot
OPRK00000KT3000mHaze34oC998hp67%R-Y-KHAN
OPSW13002KT6000mClear33oC997hp70%Sahiwal
OPSS00000KT4000mPartly Cloudy29oC75%SAIDU SHARIF
OPNH13506KT3000mPartly Cloudy28oC999hp88%Shaheed Benazirabad
OPRQ09006KT4000mPartly Cloudy33oC998hp64%Shorkot
OPST13010KT4000mPartly Cloudy29oC1001hp78%Sialkot Airport
OPSD31008KT6000mPartly Cloudy25oC1013hp39%Skardu
OPSK13008KT4000mPartly Cloudy34oC997hp65%Sukkur
OPTS00000KT4000mHaze32oC82%T.T. SINGH
OPTU27010KT5000mClear34oC1000hp54%Turbat